sensor_id;sensor_type;location;lat;lon;timestamp;P1;durP1;ratioP1;P2;durP2;ratioP2
69588;SDS011;56792;50.644;17.984;2022-08-01T00:02:36;5.60;;;3.10;;
69588;SDS011;56792;50.644;17.984;2022-08-01T00:15:28;5.50;;;3.00;;
69588;SDS011;56792;50.644;17.984;2022-08-01T00:22:26;4.10;;;3.00;;
69588;SDS011;56792;50.644;17.984;2022-08-01T00:25:00;5.70;;;3.30;;
69588;SDS011;56792;50.644;17.984;2022-08-01T00:27:34;5.10;;;3.00;;
69588;SDS011;56792;50.644;17.984;2022-08-01T00:30:10;5.10;;;3.00;;
69588;SDS011;56792;50.644;17.984;2022-08-01T00:35:56;4.40;;;2.70;;
69588;SDS011;56792;50.644;17.984;2022-08-01T00:38:30;4.60;;;3.00;;
69588;SDS011;56792;50.644;17.984;2022-08-01T00:45:13;4.70;;;2.50;;
69588;SDS011;56792;50.644;17.984;2022-08-01T00:47:48;5.30;;;2.90;;
69588;SDS011;56792;50.644;17.984;2022-08-01T00:59:10;4.30;;;2.80;;
69588;SDS011;56792;50.644;17.984;2022-08-01T01:02:04;4.90;;;3.10;;
69588;SDS011;56792;50.644;17.984;2022-08-01T01:07:31;6.20;;;3.90;;
69588;SDS011;56792;50.644;17.984;2022-08-01T01:13:49;4.50;;;3.30;;
69588;SDS011;56792;50.644;17.984;2022-08-01T01:16:31;5.90;;;2.90;;
69588;SDS011;56792;50.644;17.984;2022-08-01T01:19:13;5.60;;;3.10;;
69588;SDS011;56792;50.644;17.984;2022-08-01T01:22:22;4.90;;;3.30;;
69588;SDS011;56792;50.644;17.984;2022-08-01T01:29:15;4.90;;;2.80;;
69588;SDS011;56792;50.644;17.984;2022-08-01T01:36:34;3.70;;;2.90;;
69588;SDS011;56792;50.644;17.984;2022-08-01T02:04:18;6.30;;;3.40;;
69588;SDS011;56792;50.644;17.984;2022-08-01T02:06:53;4.70;;;3.40;;
69588;SDS011;56792;50.644;17.984;2022-08-01T02:09:24;5.70;;;3.80;;
69588;SDS011;56792;50.644;17.984;2022-08-01T02:11:56;8.50;;;3.70;;
69588;SDS011;56792;50.644;17.984;2022-08-01T02:14:29;5.30;;;3.30;;
69588;SDS011;56792;50.644;17.984;2022-08-01T02:17:00;6.30;;;3.70;;
69588;SDS011;56792;50.644;17.984;2022-08-01T02:19:34;5.80;;;3.90;;
69588;SDS011;56792;50.644;17.984;2022-08-01T02:22:11;6.10;;;3.70;;
69588;SDS011;56792;50.644;17.984;2022-08-01T02:24:57;6.00;;;3.60;;
69588;SDS011;56792;50.644;17.984;2022-08-01T02:52:24;5.50;;;4.00;;
69588;SDS011;56792;50.644;17.984;2022-08-01T02:59:19;7.40;;;4.10;;
69588;SDS011;56792;50.644;17.984;2022-08-01T03:08:01;5.50;;;4.40;;
69588;SDS011;56792;50.644;17.984;2022-08-01T03:10:38;6.10;;;4.00;;
69588;SDS011;56792;50.644;17.984;2022-08-01T03:13:11;6.00;;;4.40;;
69588;SDS011;56792;50.644;17.984;2022-08-01T03:23:56;6.50;;;4.40;;
69588;SDS011;56792;50.644;17.984;2022-08-01T03:31:17;6.00;;;4.40;;
69588;SDS011;56792;50.644;17.984;2022-08-01T03:38:05;6.60;;;4.60;;
69588;SDS011;56792;50.644;17.984;2022-08-01T03:40:47;6.50;;;4.50;;
69588;SDS011;56792;50.644;17.984;2022-08-01T03:43:34;6.80;;;4.40;;
69588;SDS011;56792;50.644;17.984;2022-08-01T03:46:45;7.40;;;5.00;;
69588;SDS011;56792;50.644;17.984;2022-08-01T03:49:24;9.10;;;5.60;;
69588;SDS011;56792;50.644;17.984;2022-08-01T03:51:59;7.40;;;5.80;;
69588;SDS011;56792;50.644;17.984;2022-08-01T03:54:37;8.80;;;5.90;;
69588;SDS011;56792;50.644;17.984;2022-08-01T03:57:11;8.30;;;5.50;;
69588;SDS011;56792;50.644;17.984;2022-08-01T03:59:43;8.60;;;6.20;;
69588;SDS011;56792;50.644;17.984;2022-08-01T04:02:16;9.70;;;6.80;;
69588;SDS011;56792;50.644;17.984;2022-08-01T04:04:49;8.70;;;6.50;;
69588;SDS011;56792;50.644;17.984;2022-08-01T04:07:25;10.80;;;6.90;;
69588;SDS011;56792;50.644;17.984;2022-08-01T04:09:55;9.40;;;7.70;;
69588;SDS011;56792;50.644;17.984;2022-08-01T04:12:25;9.90;;;6.60;;
69588;SDS011;56792;50.644;17.984;2022-08-01T04:14:55;10.20;;;7.40;;
69588;SDS011;56792;50.644;17.984;2022-08-01T04:20:39;13.70;;;8.00;;
69588;SDS011;56792;50.644;17.984;2022-08-01T04:23:13;12.00;;;8.60;;
69588;SDS011;56792;50.644;17.984;2022-08-01T04:25:49;16.90;;;9.30;;
69588;SDS011;56792;50.644;17.984;2022-08-01T04:28:55;14.70;;;9.90;;
69588;SDS011;56792;50.644;17.984;2022-08-01T04:31:29;17.30;;;10.70;;
69588;SDS011;56792;50.644;17.984;2022-08-01T04:34:06;21.10;;;13.00;;
69588;SDS011;56792;50.644;17.984;2022-08-01T04:36:43;21.10;;;12.80;;
69588;SDS011;56792;50.644;17.984;2022-08-01T04:39:19;27.00;;;14.00;;
69588;SDS011;56792;50.644;17.984;2022-08-01T04:41:55;23.80;;;14.10;;
69588;SDS011;56792;50.644;17.984;2022-08-01T04:44:29;22.30;;;14.50;;
69588;SDS011;56792;50.644;17.984;2022-08-01T04:47:05;22.90;;;13.90;;
69588;SDS011;56792;50.644;17.984;2022-08-01T04:49:40;20.10;;;13.10;;
69588;SDS011;56792;50.644;17.984;2022-08-01T04:52:16;19.90;;;13.40;;
69588;SDS011;56792;50.644;17.984;2022-08-01T04:54:49;21.50;;;13.00;;
69588;SDS011;56792;50.644;17.984;2022-08-01T04:57:19;18.50;;;12.30;;
69588;SDS011;56792;50.644;17.984;2022-08-01T05:02:57;19.40;;;11.90;;
69588;SDS011;56792;50.644;17.984;2022-08-01T05:05:26;17.80;;;11.80;;
69588;SDS011;56792;50.644;17.984;2022-08-01T05:07:57;17.50;;;11.50;;
69588;SDS011;56792;50.644;17.984;2022-08-01T05:10:28;16.20;;;10.70;;
69588;SDS011;56792;50.644;17.984;2022-08-01T05:12:58;18.30;;;11.20;;
69588;SDS011;56792;50.644;17.984;2022-08-01T05:15:30;16.90;;;11.00;;
69588;SDS011;56792;50.644;17.984;2022-08-01T05:18:00;15.30;;;10.20;;
69588;SDS011;56792;50.644;17.984;2022-08-01T05:20:58;16.10;;;10.30;;
69588;SDS011;56792;50.644;17.984;2022-08-01T05:23:32;17.20;;;10.30;;
69588;SDS011;56792;50.644;17.984;2022-08-01T05:26:05;16.20;;;10.60;;
69588;SDS011;56792;50.644;17.984;2022-08-01T05:28:39;17.40;;;10.10;;
69588;SDS011;56792;50.644;17.984;2022-08-01T05:31:12;18.20;;;10.40;;
69588;SDS011;56792;50.644;17.984;2022-08-01T05:33:53;19.30;;;10.40;;
69588;SDS011;56792;50.644;17.984;2022-08-01T05:36:23;17.10;;;9.50;;
69588;SDS011;56792;50.644;17.984;2022-08-01T05:42:59;15.30;;;8.90;;
69588;SDS011;56792;50.644;17.984;2022-08-01T05:45:32;12.10;;;8.80;;
69588;SDS011;56792;50.644;17.984;2022-08-01T05:48:21;13.80;;;8.90;;
69588;SDS011;56792;50.644;17.984;2022-08-01T05:51:11;14.00;;;9.00;;
69588;SDS011;56792;50.644;17.984;2022-08-01T05:54:01;16.10;;;8.60;;
69588;SDS011;56792;50.644;17.984;2022-08-01T05:56:36;15.00;;;8.90;;
69588;SDS011;56792;50.644;17.984;2022-08-01T05:59:08;15.20;;;9.00;;
69588;SDS011;56792;50.644;17.984;2022-08-01T06:01:38;16.30;;;9.00;;
69588;SDS011;56792;50.644;17.984;2022-08-01T06:04:09;16.10;;;9.00;;
69588;SDS011;56792;50.644;17.984;2022-08-01T06:06:39;16.10;;;10.00;;
69588;SDS011;56792;50.644;17.984;2022-08-01T06:09:09;16.00;;;9.50;;
69588;SDS011;56792;50.644;17.984;2022-08-01T06:11:39;17.50;;;9.60;;
69588;SDS011;56792;50.644;17.984;2022-08-01T06:14:10;13.90;;;8.50;;
69588;SDS011;56792;50.644;17.984;2022-08-01T06:16:40;16.40;;;9.60;;
69588;SDS011;56792;50.644;17.984;2022-08-01T06:19:10;14.90;;;8.30;;
69588;SDS011;56792;50.644;17.984;2022-08-01T06:21:41;14.60;;;8.80;;
69588;SDS011;56792;50.644;17.984;2022-08-01T06:24:11;14.50;;;7.90;;
69588;SDS011;56792;50.644;17.984;2022-08-01T06:26:41;13.60;;;8.70;;
69588;SDS011;56792;50.644;17.984;2022-08-01T06:29:23;12.70;;;7.80;;
69588;SDS011;56792;50.644;17.984;2022-08-01T06:31:54;13.70;;;7.40;;
69588;SDS011;56792;50.644;17.984;2022-08-01T06:34:32;14.20;;;7.30;;
69588;SDS011;56792;50.644;17.984;2022-08-01T06:37:02;12.00;;;6.80;;
69588;SDS011;56792;50.644;17.984;2022-08-01T06:39:39;13.50;;;6.80;;
69588;SDS011;56792;50.644;17.984;2022-08-01T06:42:09;10.60;;;6.30;;
69588;SDS011;56792;50.644;17.984;2022-08-01T06:44:39;10.50;;;6.60;;
69588;SDS011;56792;50.644;17.984;2022-08-01T06:47:09;11.50;;;6.70;;
69588;SDS011;56792;50.644;17.984;2022-08-01T06:50:14;13.90;;;7.00;;
69588;SDS011;56792;50.644;17.984;2022-08-01T06:52:54;12.40;;;6.20;;
69588;SDS011;56792;50.644;17.984;2022-08-01T06:55:45;10.90;;;6.10;;
69588;SDS011;56792;50.644;17.984;2022-08-01T06:58:32;12.60;;;6.20;;
69588;SDS011;56792;50.644;17.984;2022-08-01T07:01:22;8.50;;;5.40;;
69588;SDS011;56792;50.644;17.984;2022-08-01T07:04:12;8.30;;;5.10;;
69588;SDS011;56792;50.644;17.984;2022-08-01T07:06:41;9.80;;;4.80;;
69588;SDS011;56792;50.644;17.984;2022-08-01T07:09:14;8.00;;;4.10;;
69588;SDS011;56792;50.644;17.984;2022-08-01T07:53:29;7.40;;;3.80;;
69588;SDS011;56792;50.644;17.984;2022-08-01T08:00:27;6.50;;;4.30;;
69588;SDS011;56792;50.644;17.984;2022-08-01T14:10:53;4.80;;;2.70;;
69588;SDS011;56792;50.644;17.984;2022-08-01T14:13:36;4.90;;;2.90;;
69588;SDS011;56792;50.644;17.984;2022-08-01T14:29:17;7.70;;;4.10;;
69588;SDS011;56792;50.644;17.984;2022-08-01T14:54:14;7.00;;;4.50;;
69588;SDS011;56792;50.644;17.984;2022-08-01T14:57:04;9.80;;;7.90;;
69588;SDS011;56792;50.644;17.984;2022-08-01T15:07:45;7.80;;;5.40;;
69588;SDS011;56792;50.644;17.984;2022-08-01T15:13:59;7.90;;;5.50;;
69588;SDS011;56792;50.644;17.984;2022-08-01T15:17:15;7.70;;;5.50;;
69588;SDS011;56792;50.644;17.984;2022-08-01T15:20:10;8.40;;;5.30;;
69588;SDS011;56792;50.644;17.984;2022-08-01T15:25:42;9.80;;;6.80;;
69588;SDS011;56792;50.644;17.984;2022-08-01T15:32:11;7.40;;;4.60;;
69588;SDS011;56792;50.644;17.984;2022-08-01T15:43:19;6.70;;;3.80;;
69588;SDS011;56792;50.644;17.984;2022-08-01T15:50:16;5.50;;;4.10;;
69588;SDS011;56792;50.644;17.984;2022-08-01T16:01:13;6.40;;;3.80;;
69588;SDS011;56792;50.644;17.984;2022-08-01T16:04:03;5.90;;;4.10;;
69588;SDS011;56792;50.644;17.984;2022-08-01T16:06:47;5.30;;;4.10;;
69588;SDS011;56792;50.644;17.984;2022-08-01T16:09:37;6.10;;;4.10;;
69588;SDS011;56792;50.644;17.984;2022-08-01T16:12:21;6.00;;;4.30;;
69588;SDS011;56792;50.644;17.984;2022-08-01T16:15:11;5.40;;;4.20;;
69588;SDS011;56792;50.644;17.984;2022-08-01T16:18:01;6.60;;;4.50;;
69588;SDS011;56792;50.644;17.984;2022-08-01T16:20:52;6.40;;;4.40;;
69588;SDS011;56792;50.644;17.984;2022-08-01T16:23:38;7.90;;;4.50;;
69588;SDS011;56792;50.644;17.984;2022-08-01T16:26:19;6.60;;;4.70;;
69588;SDS011;56792;50.644;17.984;2022-08-01T16:29:33;6.40;;;5.00;;
69588;SDS011;56792;50.644;17.984;2022-08-01T16:53:22;7.30;;;4.80;;
69588;SDS011;56792;50.644;17.984;2022-08-01T17:08:31;6.20;;;4.50;;
69588;SDS011;56792;50.644;17.984;2022-08-01T17:11:05;6.30;;;5.30;;
69588;SDS011;56792;50.644;17.984;2022-08-01T17:14:12;8.00;;;4.80;;
69588;SDS011;56792;50.644;17.984;2022-08-01T17:21:11;7.20;;;5.10;;
69588;SDS011;56792;50.644;17.984;2022-08-01T17:53:55;8.20;;;7.30;;
69588;SDS011;56792;50.644;17.984;2022-08-01T17:56:26;9.10;;;7.30;;
69588;SDS011;56792;50.644;17.984;2022-08-01T18:13:38;12.70;;;8.50;;
69588;SDS011;56792;50.644;17.984;2022-08-01T18:16:29;6.70;;;5.50;;
69588;SDS011;56792;50.644;17.984;2022-08-01T18:23:29;6.30;;;4.00;;
69588;SDS011;56792;50.644;17.984;2022-08-01T18:34:49;7.40;;;4.30;;
69588;SDS011;56792;50.644;17.984;2022-08-01T18:41:45;7.70;;;5.10;;
69588;SDS011;56792;50.644;17.984;2022-08-01T18:48:27;6.30;;;5.30;;
69588;SDS011;56792;50.644;17.984;2022-08-01T18:55:24;8.60;;;5.60;;
69588;SDS011;56792;50.644;17.984;2022-08-01T18:58:20;6.50;;;5.20;;
69588;SDS011;56792;50.644;17.984;2022-08-01T19:01:37;6.50;;;4.40;;
69588;SDS011;56792;50.644;17.984;2022-08-01T19:13:49;5.80;;;3.90;;
69588;SDS011;56792;50.644;17.984;2022-08-01T19:28:56;5.40;;;3.40;;
69588;SDS011;56792;50.644;17.984;2022-08-01T19:31:41;6.50;;;4.70;;
69588;SDS011;56792;50.644;17.984;2022-08-01T19:34:23;6.70;;;4.30;;
69588;SDS011;56792;50.644;17.984;2022-08-01T19:41:30;6.70;;;3.20;;
69588;SDS011;56792;50.644;17.984;2022-08-01T20:08:30;6.00;;;2.80;;
69588;SDS011;56792;50.644;17.984;2022-08-01T20:32:59;3.40;;;1.60;;
69588;SDS011;56792;50.644;17.984;2022-08-01T20:35:37;7.30;;;5.90;;
69588;SDS011;56792;50.644;17.984;2022-08-01T20:38:18;5.10;;;2.80;;
69588;SDS011;56792;50.644;17.984;2022-08-01T20:40:56;3.50;;;2.00;;
69588;SDS011;56792;50.644;17.984;2022-08-01T20:58:57;4.40;;;3.70;;
69588;SDS011;56792;50.644;17.984;2022-08-01T21:01:33;18.10;;;16.40;;
69588;SDS011;56792;50.644;17.984;2022-08-01T21:04:17;6.60;;;4.90;;
69588;SDS011;56792;50.644;17.984;2022-08-01T21:07:05;4.30;;;2.10;;
